createdAt,value
2023-09-16T00:01:23.824Z,20.80
2023-09-16T00:03:50.899Z,20.80
2023-09-16T00:06:17.922Z,20.80
2023-09-16T00:08:44.992Z,20.90
2023-09-16T00:11:12.079Z,20.80
2023-09-16T00:13:39.117Z,20.70
2023-09-16T00:16:06.126Z,20.70
2023-09-16T00:18:33.202Z,20.70
2023-09-16T00:21:00.207Z,20.70
2023-09-16T00:23:27.211Z,20.70
2023-09-16T00:25:54.317Z,20.60
2023-09-16T00:28:21.323Z,20.70
2023-09-16T00:30:48.812Z,20.60
2023-09-16T00:33:16.084Z,20.60
2023-09-16T00:35:43.103Z,20.60
2023-09-16T00:38:10.240Z,20.70
2023-09-16T00:40:38.057Z,20.70
2023-09-16T00:43:05.145Z,20.70
2023-09-16T00:45:32.174Z,20.70
2023-09-16T00:47:59.251Z,20.70
2023-09-16T00:50:26.355Z,20.70
2023-09-16T00:52:56.966Z,20.80
2023-09-16T00:55:24.020Z,20.80
2023-09-16T00:57:52.014Z,20.90
2023-09-16T01:00:19.266Z,20.70
2023-09-16T01:02:46.535Z,20.70
2023-09-16T01:05:13.871Z,20.80
2023-09-16T01:07:40.935Z,20.80
2023-09-16T01:10:09.095Z,20.80
2023-09-16T01:12:36.144Z,20.70
2023-09-16T01:15:03.222Z,20.70
2023-09-16T01:17:34.578Z,20.70
2023-09-16T01:20:07.608Z,20.80
2023-09-16T01:22:35.439Z,20.70
2023-09-16T01:25:06.241Z,20.50
2023-09-16T01:27:33.447Z,20.70
2023-09-16T01:30:00.867Z,20.60
2023-09-16T01:32:35.099Z,20.50
2023-09-16T01:35:03.896Z,20.50
2023-09-16T01:37:30.910Z,20.50
2023-09-16T01:39:58.468Z,20.50
2023-09-16T01:42:28.429Z,20.60
2023-09-16T01:44:55.477Z,20.50
2023-09-16T01:47:22.773Z,20.50
2023-09-16T01:49:49.857Z,20.60
2023-09-16T01:52:16.988Z,20.60
2023-09-16T01:54:44.178Z,20.40
2023-09-16T01:57:11.282Z,20.50
2023-09-16T01:59:38.343Z,20.50
2023-09-16T02:02:05.360Z,20.40
2023-09-16T02:04:32.397Z,20.40
2023-09-16T02:06:59.390Z,20.50
2023-09-16T02:09:26.498Z,20.50
2023-09-16T02:11:53.511Z,20.60
2023-09-16T02:14:20.549Z,20.70
2023-09-16T02:16:47.804Z,20.60
2023-09-16T02:19:14.877Z,20.60
2023-09-16T02:21:41.927Z,20.60
2023-09-16T02:24:09.026Z,20.70
2023-09-16T02:26:36.155Z,20.60
2023-09-16T02:29:03.208Z,20.60
2023-09-16T02:31:30.209Z,20.60
2023-09-16T02:34:00.333Z,20.60
2023-09-16T02:36:27.916Z,20.60
2023-09-16T02:38:55.016Z,20.60
2023-09-16T02:41:21.979Z,20.60
2023-09-16T02:43:49.068Z,20.60
2023-09-16T02:46:16.207Z,20.60
2023-09-16T02:48:43.409Z,20.50
2023-09-16T02:51:10.403Z,20.50
2023-09-16T02:53:38.468Z,20.50
2023-09-16T02:56:05.678Z,20.60
2023-09-16T02:58:32.707Z,20.50
2023-09-16T03:00:59.769Z,20.50
2023-09-16T03:03:27.130Z,20.60
2023-09-16T03:05:54.201Z,20.70
2023-09-16T03:08:21.335Z,20.70
2023-09-16T03:10:48.506Z,20.70
2023-09-16T03:13:15.472Z,20.70
2023-09-16T03:15:46.998Z,20.70
2023-09-16T03:18:14.232Z,20.70
2023-09-16T03:20:41.307Z,20.60
2023-09-16T03:23:08.367Z,20.60
2023-09-16T03:25:35.372Z,20.60
2023-09-16T03:28:02.467Z,20.60
2023-09-16T03:30:29.561Z,20.50
2023-09-16T03:32:56.552Z,20.60
2023-09-16T03:35:23.652Z,20.60
2023-09-16T03:37:50.692Z,20.70
2023-09-16T03:40:17.824Z,20.70
2023-09-16T03:42:44.941Z,20.70
2023-09-16T03:45:23.134Z,20.60
2023-09-16T03:47:54.466Z,20.80
2023-09-16T03:50:21.703Z,20.80
2023-09-16T03:52:48.694Z,20.80
2023-09-16T03:55:16.110Z,20.80
2023-09-16T03:57:43.299Z,20.60
2023-09-16T04:00:11.228Z,20.60
2023-09-16T04:02:38.537Z,20.50
2023-09-16T04:05:06.778Z,20.60
2023-09-16T04:07:33.905Z,20.70
2023-09-16T04:10:01.067Z,20.60
2023-09-16T04:12:28.173Z,20.70
2023-09-16T04:14:55.120Z,20.60
2023-09-16T04:17:22.165Z,20.60
2023-09-16T04:19:49.160Z,20.60
2023-09-16T04:22:16.197Z,20.80
2023-09-16T04:24:43.409Z,20.60
2023-09-16T04:27:10.420Z,20.50
2023-09-16T04:29:37.419Z,20.60
2023-09-16T04:32:05.109Z,20.60
2023-09-16T04:34:33.567Z,20.60
2023-09-16T04:37:00.971Z,20.70
2023-09-16T04:39:28.206Z,20.70
2023-09-16T04:41:55.187Z,20.50
2023-09-16T04:44:22.595Z,20.40
2023-09-16T04:46:50.111Z,20.50
2023-09-16T04:49:17.135Z,20.40
2023-09-16T04:51:44.191Z,20.40
2023-09-16T04:54:11.155Z,20.40
2023-09-16T04:56:38.201Z,20.50
2023-09-16T04:59:05.571Z,20.50
2023-09-16T05:01:33.121Z,20.60
2023-09-16T05:04:00.423Z,20.60
2023-09-16T05:06:27.695Z,20.70
2023-09-16T05:08:54.700Z,20.60
2023-09-16T05:11:21.657Z,20.60
2023-09-16T05:13:48.691Z,20.50
2023-09-16T05:16:15.735Z,20.50
2023-09-16T05:18:42.835Z,20.70
2023-09-16T05:21:09.830Z,20.60
2023-09-16T05:23:36.835Z,20.80
2023-09-16T05:26:05.752Z,20.70
2023-09-16T05:28:32.854Z,20.80
2023-09-16T05:30:59.834Z,20.70
2023-09-16T05:33:26.861Z,20.50
2023-09-16T05:35:53.801Z,20.40
2023-09-16T05:38:20.885Z,20.50
2023-09-16T05:40:47.823Z,20.50
2023-09-16T05:43:14.933Z,20.60
2023-09-16T05:45:42.096Z,20.60
2023-09-16T05:48:09.163Z,20.50
2023-09-16T05:50:36.117Z,20.40
2023-09-16T05:53:04.877Z,20.60
2023-09-16T05:55:31.833Z,20.70
2023-09-16T05:57:58.894Z,20.80
2023-09-16T06:00:25.922Z,20.90
2023-09-16T06:02:53.478Z,20.90
2023-09-16T06:05:20.644Z,20.90
2023-09-16T06:07:47.674Z,21.00
2023-09-16T06:10:14.733Z,21.20
2023-09-16T06:12:41.734Z,21.20
2023-09-16T06:15:09.598Z,21.50
2023-09-16T06:17:36.614Z,21.50
2023-09-16T06:20:04.222Z,21.40
2023-09-16T06:22:31.141Z,21.60
2023-09-16T06:24:58.169Z,21.70
2023-09-16T06:27:25.129Z,21.90
2023-09-16T06:29:52.207Z,22.00
2023-09-16T06:32:19.220Z,22.20
2023-09-16T06:34:46.409Z,22.10
2023-09-16T06:37:13.428Z,22.10
2023-09-16T06:39:40.509Z,22.10
2023-09-16T06:42:07.525Z,22.10
2023-09-16T06:44:34.515Z,22.10
2023-09-16T06:47:01.576Z,22.40
2023-09-16T06:49:28.584Z,22.60
2023-09-16T06:51:55.606Z,23.20
2023-09-16T06:54:22.656Z,23.70
2023-09-16T06:56:49.638Z,23.50
2023-09-16T07:02:01.115Z,23.30
2023-09-16T07:04:28.263Z,23.10
2023-09-16T07:06:55.977Z,23.00
2023-09-16T07:09:23.156Z,22.80
2023-09-16T07:11:50.169Z,22.70
2023-09-16T07:14:17.203Z,22.70
2023-09-16T07:16:44.221Z,22.70
2023-09-16T07:19:11.373Z,22.50
2023-09-16T07:21:38.630Z,22.50
2023-09-16T07:24:06.892Z,22.50
2023-09-16T07:26:34.956Z,22.50
2023-09-16T07:29:02.026Z,22.50
2023-09-16T07:31:29.991Z,22.60
2023-09-16T07:33:57.087Z,22.50
2023-09-16T07:36:24.139Z,22.60
2023-09-16T07:38:51.282Z,22.70
2023-09-16T07:41:19.729Z,22.60
2023-09-16T07:43:46.717Z,22.60
2023-09-16T07:46:13.820Z,22.60
2023-09-16T07:48:40.950Z,22.60
2023-09-16T07:51:07.968Z,22.50
2023-09-16T07:53:34.971Z,22.60
2023-09-16T07:56:02.114Z,22.70
2023-09-16T07:58:29.143Z,22.60
2023-09-16T08:00:56.229Z,22.50
2023-09-16T08:03:23.564Z,22.70
2023-09-16T08:05:50.725Z,22.80
2023-09-16T08:08:18.213Z,22.80
2023-09-16T08:10:48.472Z,22.90
2023-09-16T08:13:15.516Z,22.90
2023-09-16T08:15:42.568Z,22.90
2023-09-16T08:18:09.719Z,23.00
2023-09-16T08:20:36.764Z,23.10
2023-09-16T08:23:03.880Z,23.20
2023-09-16T08:25:30.956Z,23.30
2023-09-16T08:27:58.136Z,23.30
2023-09-16T08:30:25.172Z,23.20
2023-09-16T08:32:52.321Z,23.30
2023-09-16T08:35:19.308Z,23.30
2023-09-16T08:37:46.338Z,23.20
2023-09-16T08:40:13.448Z,23.10
2023-09-16T08:42:46.025Z,23.10
2023-09-16T08:45:17.271Z,22.90
2023-09-16T08:47:54.357Z,22.90
2023-09-16T08:50:22.985Z,22.90
2023-09-16T08:52:53.849Z,22.80
2023-09-16T08:55:21.166Z,22.90
2023-09-16T08:57:57.375Z,22.90
2023-09-16T09:00:25.300Z,22.80
2023-09-16T09:02:52.425Z,23.00
2023-09-16T09:05:19.762Z,23.00
2023-09-16T09:07:46.801Z,23.20
2023-09-16T09:10:14.088Z,23.00
2023-09-16T09:12:42.653Z,23.20
2023-09-16T09:15:14.948Z,23.50
2023-09-16T09:17:49.655Z,23.70
2023-09-16T09:20:20.628Z,23.80
2023-09-16T09:22:49.012Z,23.80
2023-09-16T09:25:16.056Z,23.80
2023-09-16T09:27:43.182Z,24.00
2023-09-16T09:30:10.940Z,24.20
2023-09-16T09:32:39.304Z,24.30
2023-09-16T09:35:06.810Z,25.30
2023-09-16T09:37:34.267Z,25.90
2023-09-16T09:40:13.283Z,25.70
2023-09-16T09:42:43.310Z,25.60
2023-09-16T09:45:11.338Z,25.80
2023-09-16T09:47:39.015Z,26.30
2023-09-16T09:50:07.582Z,26.40
2023-09-16T09:52:34.983Z,26.60
2023-09-16T09:55:04.428Z,26.70
2023-09-16T09:57:32.727Z,26.80
2023-09-16T09:59:59.973Z,26.90
2023-09-16T10:02:27.223Z,26.90
2023-09-16T10:05:01.154Z,26.40
2023-09-16T10:07:28.833Z,26.60
2023-09-16T10:09:57.169Z,26.50
2023-09-16T10:12:24.372Z,26.50
2023-09-16T10:14:51.578Z,26.00
2023-09-16T10:17:21.950Z,26.10
2023-09-16T10:19:49.037Z,26.00
2023-09-16T10:22:16.293Z,26.20
2023-09-16T10:24:44.641Z,26.10
2023-09-16T10:27:29.830Z,26.50
2023-09-16T10:29:57.162Z,26.70
2023-09-16T10:32:24.400Z,26.60
2023-09-16T10:34:51.507Z,26.80
2023-09-16T10:37:18.573Z,27.10
2023-09-16T10:39:47.487Z,27.30
2023-09-16T10:42:16.105Z,27.60
2023-09-16T10:44:43.408Z,27.80
2023-09-16T10:47:11.115Z,27.40
2023-09-16T10:49:41.213Z,27.10
2023-09-16T10:52:10.899Z,26.80
2023-09-16T10:54:47.090Z,27.50
2023-09-16T10:57:20.412Z,27.60
2023-09-16T10:59:48.760Z,27.90
2023-09-16T11:02:50.032Z,27.70
2023-09-16T11:05:17.319Z,27.50
2023-09-16T11:07:44.297Z,27.20
2023-09-16T11:10:11.499Z,27.30
2023-09-16T11:12:38.852Z,27.40
2023-09-16T11:15:09.776Z,27.10
2023-09-16T11:17:39.977Z,27.00
2023-09-16T11:20:23.356Z,26.80
2023-09-16T11:22:50.671Z,27.00
2023-09-16T11:25:18.319Z,27.00
2023-09-16T11:27:46.483Z,27.20
2023-09-16T11:30:17.159Z,27.00
2023-09-16T11:32:56.247Z,27.20
2023-09-16T11:35:23.504Z,27.20
2023-09-16T11:37:50.649Z,27.40
2023-09-16T11:40:17.747Z,27.70
2023-09-16T11:42:45.080Z,27.60
2023-09-16T11:45:12.236Z,27.60
2023-09-16T11:47:39.480Z,27.50
2023-09-16T11:50:24.144Z,27.70
2023-09-16T11:52:54.311Z,27.30
2023-09-16T11:55:21.456Z,27.20
2023-09-16T11:57:49.265Z,27.20
2023-09-16T12:00:16.608Z,27.20
2023-09-16T12:02:46.705Z,27.20
2023-09-16T12:05:13.742Z,27.20
2023-09-16T12:07:40.889Z,27.50
2023-09-16T12:10:08.639Z,27.60
2023-09-16T12:12:38.817Z,27.40
2023-09-16T12:15:06.544Z,27.50
2023-09-16T12:17:33.797Z,27.70
2023-09-16T12:20:01.036Z,27.50
2023-09-16T12:22:28.186Z,27.50
2023-09-16T12:24:55.444Z,27.50
2023-09-16T12:27:26.523Z,27.00
2023-09-16T12:29:53.764Z,26.70
2023-09-16T12:32:20.970Z,26.50
2023-09-16T12:35:03.501Z,26.60
2023-09-16T12:37:30.719Z,26.30
2023-09-16T12:39:58.281Z,26.20
2023-09-16T12:42:25.554Z,26.10
2023-09-16T12:44:52.708Z,26.00
2023-09-16T12:47:21.864Z,25.90
2023-09-16T12:49:48.980Z,26.00
2023-09-16T12:52:16.005Z,25.60
2023-09-16T12:54:43.828Z,25.40
2023-09-16T12:57:14.570Z,25.40
2023-09-16T13:00:01.981Z,25.60
2023-09-16T13:02:29.024Z,25.60
2023-09-16T13:05:24.282Z,25.50
2023-09-16T13:07:56.248Z,25.70
2023-09-16T13:10:23.418Z,25.60
2023-09-16T13:12:51.270Z,25.70
2023-09-16T13:15:21.301Z,25.70
2023-09-16T13:17:49.988Z,25.70
2023-09-16T13:20:18.309Z,25.60
2023-09-16T13:22:55.479Z,25.60
2023-09-16T13:25:29.633Z,25.60
2023-09-16T13:28:05.753Z,25.70
2023-09-16T13:30:40.718Z,25.80
2023-09-16T13:33:08.283Z,26.10
2023-09-16T13:35:36.519Z,26.00
2023-09-16T13:38:03.703Z,26.20
2023-09-16T13:40:31.907Z,26.10
2023-09-16T13:43:02.531Z,26.30
2023-09-16T13:45:29.851Z,26.40
2023-09-16T13:48:10.832Z,26.20
2023-09-16T13:50:45.864Z,26.30
2023-09-16T13:53:13.782Z,26.30
2023-09-16T13:55:40.814Z,26.10
2023-09-16T13:58:08.262Z,26.10
2023-09-16T14:00:37.051Z,26.10
2023-09-16T14:03:05.622Z,26.00
2023-09-16T14:05:32.773Z,25.90
2023-09-16T14:07:59.827Z,25.90
2023-09-16T14:10:29.817Z,25.80
2023-09-16T14:12:58.193Z,25.80
2023-09-16T14:15:25.903Z,25.90
2023-09-16T14:17:53.453Z,25.90
2023-09-16T14:20:20.505Z,25.90
2023-09-16T14:22:48.471Z,25.90
2023-09-16T14:25:15.612Z,25.90
2023-09-16T14:27:42.887Z,25.70
2023-09-16T14:30:13.730Z,25.80
2023-09-16T14:32:40.878Z,25.50
2023-09-16T14:35:08.493Z,25.70
2023-09-16T14:37:35.529Z,25.70
2023-09-16T14:40:02.840Z,25.50
2023-09-16T14:42:30.063Z,25.30
2023-09-16T14:44:57.173Z,25.30
2023-09-16T14:47:24.152Z,25.30
2023-09-16T14:49:51.399Z,25.20
2023-09-16T14:52:18.556Z,25.30
2023-09-16T14:54:45.584Z,25.20
2023-09-16T14:57:12.576Z,25.40
2023-09-16T14:59:39.590Z,25.40
2023-09-16T15:02:06.769Z,25.40
2023-09-16T15:04:33.937Z,25.50
2023-09-16T15:07:00.989Z,25.70
2023-09-16T15:09:29.865Z,25.80
2023-09-16T15:11:57.081Z,25.70
2023-09-16T15:14:24.222Z,25.70
2023-09-16T15:16:51.366Z,25.60
2023-09-16T15:19:18.487Z,25.60
2023-09-16T15:21:45.596Z,25.40
2023-09-16T15:24:12.671Z,25.40
2023-09-16T15:26:39.820Z,25.10
2023-09-16T15:29:06.771Z,25.20
2023-09-16T15:31:34.075Z,25.10
2023-09-16T15:34:01.233Z,25.00
2023-09-16T15:36:28.580Z,25.10
2023-09-16T15:38:55.638Z,25.10
2023-09-16T15:41:22.768Z,25.10
2023-09-16T15:43:50.105Z,25.10
2023-09-16T15:46:17.494Z,25.00
2023-09-16T15:48:44.595Z,24.70
2023-09-16T15:51:11.638Z,24.80
2023-09-16T15:53:38.755Z,24.90
2023-09-16T15:56:05.771Z,24.80
2023-09-16T15:58:32.841Z,24.60
2023-09-16T16:01:00.080Z,24.50
2023-09-16T16:03:28.223Z,24.50
2023-09-16T16:05:55.465Z,24.40
2023-09-16T16:08:22.793Z,24.40
2023-09-16T16:10:50.421Z,24.20
2023-09-16T16:13:20.711Z,24.10
2023-09-16T16:15:51.469Z,24.20
2023-09-16T16:18:18.615Z,24.20
2023-09-16T16:20:45.673Z,24.30
2023-09-16T16:23:12.740Z,24.30
2023-09-16T16:25:39.798Z,24.30
2023-09-16T16:28:06.831Z,24.20
2023-09-16T16:30:33.996Z,24.20
2023-09-16T16:33:01.100Z,24.20
2023-09-16T16:35:37.223Z,23.90
2023-09-16T16:38:07.399Z,23.90
2023-09-16T16:40:34.404Z,23.80
2023-09-16T16:43:01.605Z,23.70
2023-09-16T16:45:28.599Z,23.60
2023-09-16T16:47:55.717Z,23.50
2023-09-16T16:50:24.406Z,23.60
2023-09-16T16:52:51.425Z,23.60
2023-09-16T16:55:18.684Z,23.50
2023-09-16T16:57:45.810Z,23.50
2023-09-16T17:00:13.407Z,23.40
2023-09-16T17:02:40.724Z,23.30
2023-09-16T17:05:08.651Z,23.40
2023-09-16T17:07:35.793Z,23.30
2023-09-16T17:10:02.910Z,23.30
2023-09-16T17:12:30.013Z,23.30
2023-09-16T17:14:56.983Z,23.20
2023-09-16T17:17:23.974Z,23.20
2023-09-16T17:19:51.108Z,23.20
2023-09-16T17:22:18.195Z,23.00
2023-09-16T17:24:46.018Z,22.80
2023-09-16T17:27:13.084Z,22.80
2023-09-16T17:29:40.192Z,22.80
2023-09-16T17:32:07.248Z,22.60
2023-09-16T17:34:34.371Z,22.50
2023-09-16T17:37:07.373Z,22.60
2023-09-16T17:39:34.455Z,22.50
2023-09-16T17:42:05.062Z,22.40
2023-09-16T17:44:35.185Z,22.30
2023-09-16T17:47:02.955Z,22.20
2023-09-16T17:49:35.294Z,22.30
2023-09-16T17:52:05.604Z,22.30
2023-09-16T17:54:32.816Z,22.30
2023-09-16T17:56:59.895Z,22.20
2023-09-16T17:59:27.043Z,22.20
2023-09-16T18:01:56.719Z,22.10
2023-09-16T18:04:26.337Z,22.20
2023-09-16T18:06:55.873Z,22.00
2023-09-16T18:09:27.687Z,22.20
2023-09-16T18:11:56.203Z,22.00
2023-09-16T18:14:23.340Z,22.10
2023-09-16T18:16:52.846Z,22.20
2023-09-16T18:19:20.511Z,22.20
2023-09-16T18:21:47.661Z,22.10
2023-09-16T18:24:15.928Z,22.10
2023-09-16T18:26:43.308Z,22.00
2023-09-16T18:29:10.549Z,22.10
2023-09-16T18:31:39.308Z,22.10
2023-09-16T18:34:06.507Z,22.00
2023-09-16T18:36:38.480Z,22.10
2023-09-16T18:39:08.608Z,22.10
2023-09-16T18:41:44.380Z,22.10
2023-09-16T18:44:22.729Z,22.20
2023-09-16T18:46:52.072Z,22.10
2023-09-16T18:49:19.407Z,22.10
2023-09-16T18:51:48.784Z,21.90
2023-09-16T18:54:15.798Z,21.90
2023-09-16T18:56:42.954Z,21.90
2023-09-16T18:59:15.790Z,21.80
2023-09-16T19:01:43.324Z,21.90
2023-09-16T19:04:10.522Z,21.90
2023-09-16T19:06:37.628Z,21.90
2023-09-16T19:09:05.160Z,21.90
2023-09-16T19:11:32.211Z,21.80
2023-09-16T19:13:59.301Z,21.80
2023-09-16T19:16:26.432Z,21.80
2023-09-16T19:18:53.501Z,21.80
2023-09-16T19:21:33.549Z,21.70
2023-09-16T19:24:05.231Z,21.70
2023-09-16T19:26:32.318Z,21.60
2023-09-16T19:29:02.563Z,21.60
2023-09-16T19:31:39.653Z,21.60
2023-09-16T19:34:06.816Z,21.50
2023-09-16T19:36:38.960Z,21.50
2023-09-16T19:39:06.131Z,21.50
2023-09-16T19:41:33.235Z,21.50
2023-09-16T19:44:03.619Z,21.60
2023-09-16T19:46:50.981Z,21.60
2023-09-16T19:49:21.076Z,21.60
2023-09-16T19:51:48.138Z,21.60
2023-09-16T19:54:18.162Z,21.50
2023-09-16T19:57:02.642Z,21.60
2023-09-16T19:59:35.652Z,21.60
2023-09-16T20:02:03.864Z,21.60
2023-09-16T20:04:31.056Z,21.50
2023-09-16T20:06:58.531Z,21.50
2023-09-16T20:09:25.803Z,21.40
2023-09-16T20:11:52.932Z,21.40
2023-09-16T20:14:20.245Z,21.40
2023-09-16T20:16:47.427Z,21.40
2023-09-16T20:19:24.734Z,21.30
2023-09-16T20:21:51.937Z,21.20
2023-09-16T20:24:18.965Z,21.30
2023-09-16T20:26:46.069Z,21.30
2023-09-16T20:29:13.079Z,21.30
2023-09-16T20:31:40.415Z,21.30
2023-09-16T20:34:12.356Z,21.30
2023-09-16T20:36:43.104Z,21.30
2023-09-16T20:39:10.251Z,21.30
2023-09-16T20:41:37.372Z,21.30
2023-09-16T20:44:04.576Z,21.40
2023-09-16T20:46:31.994Z,21.40
2023-09-16T20:48:59.228Z,21.40
2023-09-16T20:51:26.377Z,21.30
2023-09-16T20:53:53.534Z,21.30
2023-09-16T20:56:20.552Z,21.30
2023-09-16T20:58:48.801Z,21.30
2023-09-16T21:01:15.971Z,21.40
2023-09-16T21:03:43.211Z,21.40
2023-09-16T21:06:10.442Z,21.40
2023-09-16T21:08:37.534Z,21.30
2023-09-16T21:11:04.858Z,21.30
2023-09-16T21:13:32.077Z,21.20
2023-09-16T21:15:59.257Z,21.20
2023-09-16T21:18:26.348Z,21.20
2023-09-16T21:20:53.438Z,21.10
2023-09-16T21:23:20.492Z,21.10
2023-09-16T21:25:47.589Z,21.00
2023-09-16T21:28:14.678Z,21.10
2023-09-16T21:30:42.127Z,21.00
2023-09-16T21:33:09.332Z,21.10
2023-09-16T21:35:36.438Z,21.00
2023-09-16T21:38:03.615Z,21.00
2023-09-16T21:40:30.662Z,21.00
2023-09-16T21:42:57.748Z,20.90
2023-09-16T21:45:24.806Z,20.90
2023-09-16T21:47:52.003Z,20.80
2023-09-16T21:50:19.200Z,20.70
2023-09-16T21:52:46.332Z,20.80
2023-09-16T21:55:13.436Z,20.90
2023-09-16T21:57:42.075Z,20.90
2023-09-16T22:00:09.662Z,20.80
2023-09-16T22:02:36.715Z,20.90
2023-09-16T22:05:03.955Z,20.80
2023-09-16T22:07:30.990Z,20.80
2023-09-16T22:09:58.077Z,20.70
2023-09-16T22:12:25.139Z,20.60
2023-09-16T22:14:52.581Z,20.60
2023-09-16T22:17:19.800Z,20.60
2023-09-16T22:19:46.788Z,20.70
2023-09-16T22:22:13.817Z,20.70
2023-09-16T22:24:40.897Z,20.80
2023-09-16T22:27:08.044Z,20.70
2023-09-16T22:29:35.254Z,20.70
2023-09-16T22:32:02.322Z,20.50
2023-09-16T22:34:29.405Z,20.80
2023-09-16T22:36:56.502Z,20.80
2023-09-16T22:39:23.567Z,20.80
2023-09-16T22:41:50.586Z,20.80
2023-09-16T22:44:17.629Z,20.80
2023-09-16T22:46:44.756Z,20.80
2023-09-16T22:49:11.888Z,20.90
2023-09-16T22:51:38.938Z,21.00
2023-09-16T22:54:06.120Z,20.90
2023-09-16T22:56:33.156Z,21.00
2023-09-16T22:59:00.175Z,20.90
2023-09-16T23:01:27.280Z,20.90
2023-09-16T23:04:02.817Z,20.90
2023-09-16T23:06:29.797Z,20.90
2023-09-16T23:08:56.922Z,20.80
2023-09-16T23:11:23.981Z,20.70
2023-09-16T23:13:51.498Z,20.80
2023-09-16T23:16:19.252Z,20.80
2023-09-16T23:18:46.733Z,20.70
2023-09-16T23:21:13.978Z,20.80
2023-09-16T23:23:40.998Z,20.70
2023-09-16T23:26:08.080Z,20.70
2023-09-16T23:28:35.594Z,20.80
2023-09-16T23:31:02.753Z,20.60
2023-09-16T23:33:29.826Z,20.70
2023-09-16T23:35:56.907Z,20.70
2023-09-16T23:38:23.951Z,20.60
2023-09-16T23:40:51.019Z,20.50
2023-09-16T23:43:18.105Z,20.40
2023-09-16T23:45:45.218Z,20.30
2023-09-16T23:48:12.240Z,20.30
2023-09-16T23:50:39.248Z,20.20
2023-09-16T23:53:06.361Z,20.20
2023-09-16T23:55:33.424Z,20.20
2023-09-16T23:58:00.529Z,20.20
